Time;durP1;ratioP1;P1;durP2;ratioP2;P2;SDS_P1;SDS_P2;PMS_P1;PMS_P2;Temp;Humidity;BMP_temperature;BMP_pressure;BME280_temperature;BME280_humidity;BME280_pressure;Samples;Min_cycle;Max_cycle;Signal;HPM_P1;HPM_P2
2022/03/28 00:01:15;;;;;;;17.10;11.15;;;8.00;71.40;;;;;;5058720;28;20166;-90
2022/03/28 00:03:41;;;;;;;17.33;11.63;;;8.00;71.10;;;;;;5041228;28;20194;-90
2022/03/28 00:06:10;;;;;;;18.77;11.40;;;8.00;71.70;;;;;;5057720;28;20459;-92
2022/03/28 00:08:37;;;;;;;15.52;10.77;;;7.90;71.70;;;;;;5057326;28;20473;-92
2022/03/28 00:11:03;;;;;;;21.35;11.30;;;7.90;71.80;;;;;;5039739;28;20193;-91
2022/03/28 00:13:29;;;;;;;16.55;10.63;;;7.90;71.80;;;;;;5057444;28;20239;-90
2022/03/28 00:15:55;;;;;;;14.30;9.90;;;7.80;71.80;;;;;;5048790;28;20181;-92
2022/03/28 00:18:21;;;;;;;17.10;11.23;;;7.80;72.20;;;;;;5076946;28;20196;-91
2022/03/28 00:20:49;;;;;;;15.20;10.93;;;7.80;72.20;;;;;;5059888;28;20193;-92
2022/03/28 00:23:15;;;;;;;18.60;10.75;;;7.70;72.00;;;;;;5077253;28;20833;-91
2022/03/28 00:25:44;;;;;;;19.25;10.10;;;7.70;71.60;;;;;;5077350;28;20264;-92
2022/03/28 00:28:10;;;;;;;14.95;9.73;;;7.70;71.90;;;;;;5059546;28;20603;-92
2022/03/28 00:30:36;;;;;;;17.40;11.90;;;7.70;71.50;;;;;;5060669;28;20182;-91
2022/03/28 00:33:02;;;;;;;19.10;12.37;;;7.70;71.00;;;;;;5076861;28;20200;-92
2022/03/28 00:35:29;;;;;;;15.03;11.20;;;7.60;71.30;;;;;;5059264;28;20684;-93
2022/03/28 00:37:55;;;;;;;20.52;11.32;;;7.60;72.30;;;;;;5059237;28;20577;-92
2022/03/28 00:40:22;;;;;;;19.90;11.30;;;7.60;72.50;;;;;;5059565;28;20271;-91
2022/03/28 00:42:48;;;;;;;17.73;11.63;;;7.50;72.20;;;;;;5059727;28;20193;-91
2022/03/28 00:45:15;;;;;;;17.47;10.40;;;7.50;72.40;;;;;;5060121;28;20764;-92
2022/03/28 00:47:41;;;;;;;16.50;11.27;;;7.40;72.60;;;;;;5059362;28;20220;-92
2022/03/28 00:50:09;;;;;;;20.60;12.02;;;7.50;72.40;;;;;;5060065;28;20184;-91
2022/03/28 00:52:36;;;;;;;20.50;12.43;;;7.40;72.00;;;;;;5065300;28;20201;-90
2022/03/28 00:55:03;;;;;;;17.55;11.80;;;7.40;71.40;;;;;;5068567;28;20546;-89
2022/03/28 00:57:32;;;;;;;24.13;12.02;;;7.40;71.30;;;;;;5058263;28;20586;-90
2022/03/28 00:59:59;;;;;;;17.27;11.38;;;7.40;70.70;;;;;;5062103;28;20546;-88
2022/03/28 01:02:25;;;;;;;27.63;13.23;;;7.30;71.70;;;;;;5058266;28;20197;-89
2022/03/28 01:04:51;;;;;;;23.23;12.70;;;7.30;72.30;;;;;;5058273;28;20166;-90
2022/03/28 01:07:19;;;;;;;20.50;12.00;;;7.30;72.50;;;;;;5058495;28;20451;-88
2022/03/28 01:09:45;;;;;;;19.08;12.05;;;7.30;72.70;;;;;;5076092;28;20477;-89
2022/03/28 01:12:12;;;;;;;20.60;13.65;;;7.30;72.40;;;;;;5078010;28;20554;-90
2022/03/28 01:14:38;;;;;;;17.95;11.15;;;7.20;72.90;;;;;;5076140;28;20173;-89
2022/03/28 01:19:53;;;;;;;17.55;10.73;;;7.20;72.90;;;;;;5056289;28;20165;-91
2022/03/28 01:22:19;;;;;;;20.50;11.77;;;7.10;72.80;;;;;;5038345;28;20679;-89
2022/03/28 01:24:45;;;;;;;15.83;11.20;;;7.00;72.90;;;;;;5038404;28;20228;-90
2022/03/28 01:27:12;;;;;;;15.00;10.57;;;7.00;73.00;;;;;;5041815;28;20931;-89
2022/03/28 01:29:38;;;;;;;15.60;10.27;;;7.00;73.30;;;;;;5037918;28;20631;-89
2022/03/28 01:32:04;;;;;;;15.20;9.93;;;6.90;73.20;;;;;;5037691;28;20240;-90
2022/03/28 01:34:30;;;;;;;15.82;10.65;;;6.90;73.60;;;;;;5038964;28;20185;-89
2022/03/28 01:36:56;;;;;;;19.57;11.20;;;6.90;74.00;;;;;;5038729;28;20202;-90
2022/03/28 01:39:21;;;;;;;14.97;10.80;;;6.80;73.50;;;;;;5039495;28;20172;-90
2022/03/28 01:41:47;;;;;;;20.03;10.50;;;6.80;73.10;;;;;;5059819;28;20178;-91
2022/03/28 01:44:13;;;;;;;18.30;11.73;;;6.80;72.80;;;;;;5039523;28;20237;-90
2022/03/28 01:46:47;;;;;;;21.65;10.57;;;6.80;73.10;;;;;;5039763;28;20248;-92
2022/03/28 01:49:14;;;;;;;14.35;11.40;;;6.80;73.00;;;;;;5039898;28;20177;-91
2022/03/28 01:51:40;;;;;;;17.42;11.95;;;6.70;73.00;;;;;;5040929;28;20189;-90
2022/03/28 01:54:06;;;;;;;16.92;10.80;;;6.70;73.00;;;;;;5047903;28;20188;-90
2022/03/28 01:56:34;;;;;;;19.43;11.67;;;6.70;72.80;;;;;;5055503;28;20261;-91
2022/03/28 01:59:03;;;;;;;16.00;11.65;;;6.70;73.50;;;;;;5037577;28;20407;-91
2022/03/28 02:01:30;;;;;;;16.33;10.98;;;6.70;73.90;;;;;;5037724;28;20189;-89
2022/03/28 02:03:56;;;;;;;16.70;12.05;;;6.70;74.10;;;;;;5037170;28;20190;-90
2022/03/28 02:06:21;;;;;;;17.77;11.43;;;6.70;74.50;;;;;;5037292;28;20213;-91
2022/03/28 02:08:47;;;;;;;16.40;10.27;;;6.60;74.40;;;;;;5055090;28;20193;-90
2022/03/28 02:11:12;;;;;;;15.80;10.43;;;6.60;74.50;;;;;;5039041;28;20545;-91
2022/03/28 02:13:38;;;;;;;17.97;10.80;;;6.60;74.50;;;;;;5039829;28;20296;-90
2022/03/28 02:16:04;;;;;;;18.00;11.83;;;6.60;73.90;;;;;;5044835;28;20221;-91
2022/03/28 02:18:30;;;;;;;17.25;11.38;;;6.50;73.90;;;;;;5075045;28;20184;-91
2022/03/28 02:20:56;;;;;;;16.67;10.80;;;6.50;74.10;;;;;;5075454;28;20189;-91
2022/03/28 02:23:22;;;;;;;17.23;11.13;;;6.50;74.20;;;;;;5057521;28;20452;-91
2022/03/28 02:25:48;;;;;;;16.65;10.95;;;6.40;74.10;;;;;;5077627;28;20184;-90
2022/03/28 02:28:14;;;;;;;12.90;10.00;;;6.40;73.60;;;;;;5057937;28;20221;-90
2022/03/28 02:30:40;;;;;;;15.17;11.53;;;6.30;73.50;;;;;;5076239;28;20174;-90
2022/03/28 02:33:07;;;;;;;18.02;10.75;;;6.30;75.10;;;;;;5058475;28;20426;-90
2022/03/28 02:35:33;;;;;;;18.55;11.25;;;6.30;74.50;;;;;;5057937;28;20183;-91
2022/03/28 02:38:01;;;;;;;20.77;11.40;;;6.30;74.50;;;;;;5070406;28;20207;-89
2022/03/28 02:40:31;;;;;;;18.25;12.38;;;6.20;74.50;;;;;;5075552;28;20173;-89
2022/03/28 02:42:59;;;;;;;18.38;12.30;;;6.20;74.50;;;;;;5062513;28;20200;-91
2022/03/28 02:45:26;;;;;;;20.52;10.35;;;6.20;75.00;;;;;;5079351;28;20214;-92
2022/03/28 02:47:52;;;;;;;17.33;11.48;;;6.20;75.80;;;;;;5078851;28;20240;-90
2022/03/28 02:50:18;;;;;;;18.27;10.77;;;6.20;75.50;;;;;;5078974;28;20184;-90
2022/03/28 02:52:44;;;;;;;21.77;11.77;;;6.10;74.90;;;;;;5061225;28;20205;-90
2022/03/28 02:55:10;;;;;;;18.93;11.13;;;6.10;75.40;;;;;;5079322;28;20252;-90
2022/03/28 02:57:37;;;;;;;24.15;12.05;;;6.10;75.60;;;;;;5063530;28;20434;-89
2022/03/28 03:00:07;;;;;;;22.50;12.90;;;6.00;75.90;;;;;;5060985;28;20184;-91
2022/03/28 03:02:34;;;;;;;19.38;11.77;;;6.00;76.00;;;;;;5062554;28;20196;-89
2022/03/28 03:04:59;;;;;;;18.88;12.40;;;6.00;76.00;;;;;;5062310;28;20549;-90
2022/03/28 03:07:25;;;;;;;17.40;11.10;;;6.00;76.00;;;;;;5061965;28;20220;-91
2022/03/28 03:09:51;;;;;;;20.37;12.70;;;5.90;76.40;;;;;;5061989;28;20255;-91
2022/03/28 03:12:17;;;;;;;20.17;12.90;;;5.90;75.50;;;;;;5079428;28;20207;-90
2022/03/28 03:14:43;;;;;;;21.43;13.23;;;5.90;75.60;;;;;;5084328;28;20381;-91
2022/03/28 03:17:08;;;;;;;22.98;13.75;;;5.90;76.10;;;;;;5045411;28;20706;-91
2022/03/28 03:19:34;;;;;;;26.10;12.57;;;5.90;76.10;;;;;;5059486;28;20170;-90
2022/03/28 03:22:00;;;;;;;24.33;12.27;;;5.80;76.30;;;;;;5041723;28;20432;-90
2022/03/28 03:24:26;;;;;;;23.63;11.47;;;5.80;76.10;;;;;;5059284;28;20180;-90
2022/03/28 03:26:52;;;;;;;19.60;12.40;;;5.80;76.00;;;;;;5064859;28;20243;-89
2022/03/28 03:29:18;;;;;;;22.17;13.88;;;5.80;76.60;;;;;;5049619;28;20178;-91
2022/03/28 03:31:43;;;;;;;18.73;12.47;;;5.80;76.70;;;;;;5040422;28;20192;-91
2022/03/28 03:34:09;;;;;;;22.90;14.30;;;5.70;76.80;;;;;;5040038;28;20180;-90
2022/03/28 03:36:35;;;;;;;23.00;13.70;;;5.70;76.40;;;;;;5040227;28;20186;-91
2022/03/28 03:39:01;;;;;;;19.83;12.67;;;5.70;76.50;;;;;;5057733;28;20202;-91
2022/03/28 03:41:27;;;;;;;23.67;14.57;;;5.70;76.50;;;;;;5057991;28;20507;-90
2022/03/28 03:43:52;;;;;;;27.40;14.95;;;5.80;76.30;;;;;;5059102;28;20501;-91
2022/03/28 03:46:18;;;;;;;23.77;15.07;;;5.80;76.30;;;;;;5039818;28;20301;-90
2022/03/28 03:48:44;;;;;;;27.17;16.83;;;5.80;75.10;;;;;;5040206;28;20200;-90
2022/03/28 03:51:10;;;;;;;34.80;18.97;;;5.90;75.10;;;;;;5059124;28;20185;-90
2022/03/28 03:53:35;;;;;;;33.40;20.23;;;5.90;75.00;;;;;;5057374;28;20551;-91
2022/03/28 03:56:01;;;;;;;39.97;20.90;;;5.90;74.70;;;;;;5058222;28;20182;-89
2022/03/28 03:58:27;;;;;;;37.80;20.40;;;5.90;74.90;;;;;;5058248;28;20221;-90
2022/03/28 04:00:53;;;;;;;47.97;24.33;;;5.90;71.40;;;;;;5040075;28;20182;-91
2022/03/28 04:03:19;;;;;;;44.80;23.03;;;5.90;73.90;;;;;;5041349;28;20874;-92
2022/03/28 04:05:45;;;;;;;55.42;26.60;;;5.90;74.50;;;;;;5042005;28;20273;-90
2022/03/28 04:08:10;;;;;;;46.80;23.37;;;5.80;74.00;;;;;;5040685;28;20272;-90
2022/03/28 04:10:36;;;;;;;40.43;23.20;;;5.80;74.80;;;;;;5059095;28;20213;-89
2022/03/28 04:13:05;;;;;;;49.97;27.30;;;5.80;74.80;;;;;;5042519;28;20194;-91
2022/03/28 04:15:31;;;;;;;42.13;23.52;;;5.70;73.80;;;;;;5070335;28;20647;-90
2022/03/28 04:17:57;;;;;;;38.60;22.97;;;5.70;74.30;;;;;;5068073;28;20268;-90
2022/03/28 04:20:22;;;;;;;44.07;22.10;;;5.70;73.70;;;;;;5059527;28;20575;-90
2022/03/28 04:22:48;;;;;;;34.07;17.27;;;5.80;73.50;;;;;;5077060;28;20276;-90
2022/03/28 04:25:15;;;;;;;38.70;20.03;;;5.80;71.70;;;;;;5058901;28;20174;-89
2022/03/28 04:27:41;;;;;;;44.92;25.48;;;5.80;72.00;;;;;;5059066;28;20216;-89
2022/03/28 04:30:10;;;;;;;46.88;25.48;;;5.80;73.10;;;;;;5062389;28;20231;-90
2022/03/28 04:32:36;;;;;;;44.75;24.02;;;5.80;72.90;;;;;;5059964;28;20224;-89
2022/03/28 04:35:04;;;;;;;41.28;21.20;;;5.80;73.00;;;;;;5059712;28;20179;-91
2022/03/28 04:37:35;;;;;;;38.60;21.15;;;5.80;72.80;;;;;;5059922;28;20229;-91
2022/03/28 04:40:03;;;;;;;38.50;19.23;;;5.80;72.80;;;;;;5078208;28;20178;-90
2022/03/28 04:42:28;;;;;;;43.70;21.58;;;5.80;73.40;;;;;;5060024;28;20742;-90
2022/03/28 04:44:54;;;;;;;47.43;23.67;;;5.80;73.30;;;;;;5058801;28;20184;-89
2022/03/28 04:47:20;;;;;;;56.10;30.53;;;5.80;73.20;;;;;;5060946;28;20430;-91
2022/03/28 04:49:46;;;;;;;90.77;40.00;;;5.70;73.40;;;;;;5078627;28;20173;-90
2022/03/28 04:52:11;;;;;;;71.63;34.43;;;5.70;73.40;;;;;;5057650;28;20801;-90
2022/03/28 04:54:37;;;;;;;102.00;42.40;;;5.70;74.30;;;;;;5043653;28;20480;-89
2022/03/28 04:57:04;;;;;;;85.47;40.47;;;5.80;74.40;;;;;;5049322;28;20210;-90
2022/03/28 04:59:31;;;;;;;71.70;36.20;;;5.80;74.00;;;;;;5062063;28;20189;-90
2022/03/28 05:01:57;;;;;;;70.78;34.72;;;5.90;75.00;;;;;;5065117;28;20216;-88
2022/03/28 05:04:23;;;;;;;72.00;33.13;;;5.90;75.60;;;;;;5054012;28;20182;-88
2022/03/28 05:06:49;;;;;;;79.93;31.57;;;6.00;77.00;;;;;;5058352;28;20220;-90
2022/03/28 05:09:15;;;;;;;59.53;27.73;;;6.10;77.80;;;;;;5056208;28;20208;-88
2022/03/28 05:11:41;;;;;;;45.65;26.58;;;6.20;78.10;;;;;;5055965;28;20185;-89
2022/03/28 05:14:07;;;;;;;43.25;29.45;;;6.20;78.50;;;;;;5075520;28;20184;-88
2022/03/28 05:16:33;;;;;;;52.97;26.90;;;6.30;79.10;;;;;;5048453;28;20233;-89
2022/03/28 05:18:58;;;;;;;50.13;25.63;;;6.40;76.40;;;;;;5066214;28;20180;-91
2022/03/28 05:21:24;;;;;;;70.87;34.60;;;6.40;74.80;;;;;;5056304;28;20487;-90
2022/03/28 05:23:50;;;;;;;64.13;27.77;;;6.50;73.70;;;;;;5051547;28;20217;-90
2022/03/28 05:26:16;;;;;;;43.10;17.63;;;6.50;73.90;;;;;;5050694;28;20455;-90
2022/03/28 05:28:42;;;;;;;36.07;17.37;;;6.40;73.60;;;;;;5058659;28;20201;-90
2022/03/28 05:31:07;;;;;;;36.80;16.77;;;6.50;73.30;;;;;;5053077;28;20193;-90
2022/03/28 05:33:33;;;;;;;34.13;17.60;;;6.50;73.40;;;;;;5053916;28;20258;-89
2022/03/28 05:35:59;;;;;;;31.80;15.70;;;6.50;73.50;;;;;;5052633;28;20221;-91
2022/03/28 05:38:25;;;;;;;29.53;14.63;;;6.60;73.10;;;;;;5055094;28;20201;-91
2022/03/28 05:40:51;;;;;;;35.83;16.17;;;6.60;72.40;;;;;;5056192;28;20525;-90
2022/03/28 05:43:20;;;;;;;39.53;17.63;;;6.70;71.50;;;;;;5058366;28;20208;-90
2022/03/28 05:45:45;;;;;;;40.38;17.95;;;6.70;71.30;;;;;;5066972;28;20177;-90
2022/03/28 05:48:11;;;;;;;35.13;16.93;;;6.80;71.30;;;;;;5061735;28;20741;-90
2022/03/28 05:50:37;;;;;;;32.50;18.53;;;6.80;70.80;;;;;;5053855;28;20265;-91
2022/03/28 05:53:02;;;;;;;37.57;18.67;;;6.90;69.60;;;;;;5072212;28;20393;-90
2022/03/28 05:55:28;;;;;;;46.73;21.10;;;6.90;69.40;;;;;;5068583;28;20199;-90
2022/03/28 05:57:54;;;;;;;38.23;19.17;;;7.00;69.80;;;;;;5044976;28;20425;-89
2022/03/28 06:00:20;;;;;;;39.00;22.00;;;7.10;68.90;;;;;;5053193;28;20570;-89
2022/03/28 06:02:46;;;;;;;34.90;18.33;;;7.10;69.60;;;;;;5064913;28;20197;-90
2022/03/28 06:05:12;;;;;;;29.40;14.57;;;7.20;71.00;;;;;;5048312;28;20227;-90
2022/03/28 06:07:39;;;;;;;27.80;13.77;;;7.30;69.20;;;;;;5047065;28;20499;-90
2022/03/28 06:10:05;;;;;;;27.17;13.70;;;7.40;68.80;;;;;;5054710;28;20173;-89
2022/03/28 06:12:31;;;;;;;19.27;12.90;;;7.50;69.60;;;;;;5048250;28;20603;-91
2022/03/28 06:14:57;;;;;;;23.00;13.30;;;7.50;69.70;;;;;;5054761;28;20185;-88
2022/03/28 06:17:24;;;;;;;26.98;14.80;;;7.60;69.70;;;;;;5054703;28;20243;-90
2022/03/28 06:19:50;;;;;;;26.80;15.13;;;7.80;67.10;;;;;;5062802;28;20185;-91
2022/03/28 06:22:17;;;;;;;39.65;21.13;;;7.90;66.80;;;;;;5067748;28;20657;-91
2022/03/28 06:24:44;;;;;;;36.80;21.17;;;8.00;66.70;;;;;;5050523;28;20184;-90
2022/03/28 06:27:10;;;;;;;47.17;24.02;;;8.10;66.60;;;;;;5048670;28;20215;-90
2022/03/28 06:29:36;;;;;;;43.60;23.00;;;8.30;65.70;;;;;;5049510;28;20177;-89
2022/03/28 06:32:02;;;;;;;47.87;23.33;;;8.40;64.70;;;;;;5063349;28;20950;-90
2022/03/28 06:34:28;;;;;;;42.60;20.80;;;8.60;64.90;;;;;;5056370;28;20220;-89
2022/03/28 06:36:53;;;;;;;30.20;17.40;;;8.80;62.00;;;;;;5053501;28;20658;-91
2022/03/28 06:39:19;;;;;;;31.23;17.57;;;8.90;60.50;;;;;;5046617;28;20233;-89
2022/03/28 06:41:45;;;;;;;29.63;18.03;;;9.10;59.40;;;;;;5045926;28;20180;-89
2022/03/28 06:44:13;;;;;;;30.77;16.00;;;9.30;59.20;;;;;;5062181;28;20220;-89
2022/03/28 06:46:42;;;;;;;26.40;15.77;;;9.40;58.90;;;;;;5053748;28;20217;-89
2022/03/28 06:49:08;;;;;;;31.38;15.02;;;9.60;59.40;;;;;;5057933;28;20905;-89
2022/03/28 06:51:34;;;;;;;23.83;12.02;;;9.80;59.60;;;;;;5041924;28;20550;-90
2022/03/28 06:54:02;;;;;;;18.83;9.25;;;9.90;57.80;;;;;;5046237;28;20244;-90
2022/03/28 06:56:31;;;;;;;19.00;9.70;;;10.10;56.40;;;;;;5056667;28;20192;-89
2022/03/28 06:58:57;;;;;;;21.95;10.02;;;10.30;55.60;;;;;;5047066;28;20695;-90
2022/03/28 07:01:22;;;;;;;17.27;10.97;;;10.40;56.50;;;;;;5049301;28;20189;-89
2022/03/28 07:03:48;;;;;;;19.40;10.43;;;10.60;56.40;;;;;;5050821;28;20197;-91
2022/03/28 07:06:14;;;;;;;12.27;7.27;;;10.80;56.10;;;;;;5046155;28;20694;-92
2022/03/28 07:08:40;;;;;;;8.77;6.30;;;10.90;55.70;;;;;;5052294;28;20461;-92
2022/03/28 07:11:06;;;;;;;7.67;6.07;;;11.10;54.90;;;;;;5068842;28;20260;-91
2022/03/28 07:13:32;;;;;;;13.30;6.47;;;11.30;55.70;;;;;;5047202;28;20294;-90
2022/03/28 07:15:58;;;;;;;13.07;6.17;;;11.40;55.30;;;;;;5049935;28;20213;-91
2022/03/28 07:18:24;;;;;;;11.80;6.90;;;11.60;55.00;;;;;;5047779;28;20438;-90
2022/03/28 07:20:50;;;;;;;9.80;5.35;;;11.80;55.00;;;;;;5072967;28;20440;-90
2022/03/28 07:23:17;;;;;;;10.60;5.45;;;12.00;53.50;;;;;;5056792;28;20669;-89
2022/03/28 07:25:44;;;;;;;8.98;5.50;;;12.20;52.70;;;;;;5069473;28;20213;-91
2022/03/28 07:28:12;;;;;;;14.73;6.30;;;12.40;53.10;;;;;;5044845;28;20217;-90
2022/03/28 07:30:38;;;;;;;14.45;5.55;;;12.60;50.30;;;;;;5058665;28;20213;-90
2022/03/28 07:33:06;;;;;;;7.75;5.07;;;12.80;50.10;;;;;;5077023;28;20203;-90
2022/03/28 07:35:35;;;;;;;7.80;4.07;;;12.90;50.00;;;;;;5054411;28;20242;-90
2022/03/28 07:38:02;;;;;;;7.57;4.20;;;13.10;49.80;;;;;;5049880;28;20232;-90
2022/03/28 07:40:28;;;;;;;6.90;4.50;;;13.20;48.80;;;;;;5048843;28;20426;-90
2022/03/28 07:42:54;;;;;;;9.73;4.90;;;13.40;49.40;;;;;;5071014;28;20463;-90
2022/03/28 07:45:23;;;;;;;7.00;4.43;;;13.50;49.30;;;;;;5055078;28;20453;-89
2022/03/28 07:47:49;;;;;;;5.87;4.60;;;13.70;49.30;;;;;;5073446;28;20263;-89
2022/03/28 07:50:14;;;;;;;9.70;5.00;;;13.80;49.40;;;;;;5049804;28;20407;-89
2022/03/28 07:52:41;;;;;;;8.53;5.23;;;13.90;49.70;;;;;;5048909;28;20567;-91
2022/03/28 07:55:08;;;;;;;5.00;4.50;;;14.10;48.00;;;;;;5066903;28;20646;-89
2022/03/28 07:57:36;;;;;;;6.30;4.40;;;14.20;47.70;;;;;;5049514;28;20449;-89
2022/03/28 08:00:05;;;;;;;6.37;4.07;;;14.40;47.90;;;;;;5068850;28;20903;-89
2022/03/28 08:02:31;;;;;;;7.87;4.73;;;14.50;48.30;;;;;;5046087;28;20475;-89
2022/03/28 08:04:57;;;;;;;10.87;5.10;;;14.70;48.40;;;;;;5054760;28;20417;-89
2022/03/28 08:07:23;;;;;;;12.60;4.83;;;14.80;48.20;;;;;;5043547;28;20567;-89
2022/03/28 08:09:49;;;;;;;5.73;3.87;;;14.90;47.20;;;;;;5051821;28;20877;-89
2022/03/28 08:12:15;;;;;;;8.70;4.47;;;15.10;45.80;;;;;;5049468;28;20216;-90
2022/03/28 08:14:41;;;;;;;4.77;3.60;;;15.20;45.80;;;;;;5075590;28;20414;-89
2022/03/28 08:17:11;;;;;;;8.10;4.53;;;15.30;45.60;;;;;;5043066;28;20295;-90
2022/03/28 08:19:36;;;;;;;7.30;4.30;;;15.40;46.30;;;;;;5049025;28;20412;-90
2022/03/28 08:22:02;;;;;;;7.63;4.30;;;15.50;46.20;;;;;;5049239;28;20491;-90
2022/03/28 08:24:28;;;;;;;6.47;3.90;;;15.60;46.40;;;;;;5032473;28;20191;-89
2022/03/28 08:26:54;;;;;;;5.80;4.00;;;15.70;46.40;;;;;;5035186;28;20485;-92
2022/03/28 08:29:19;;;;;;;8.83;4.20;;;15.90;47.60;;;;;;5051854;28;20278;-91
2022/03/28 08:31:49;;;;;;;5.93;4.63;;;16.20;46.50;;;;;;5034534;28;20185;-91
2022/03/28 08:34:14;;;;;;;4.13;3.70;;;16.60;45.30;;;;;;5053253;28;20539;-91
2022/03/28 08:36:40;;;;;;;5.27;4.57;;;17.20;44.80;;;;;;5047082;28;20658;-91
2022/03/28 08:39:06;;;;;;;3.50;3.20;;;17.80;45.30;;;;;;5032337;28;20181;-90
2022/03/28 08:41:33;;;;;;;6.70;3.23;;;18.50;43.90;;;;;;5051329;28;20190;-91
2022/03/28 08:44:00;;;;;;;4.63;3.73;;;19.30;42.60;;;;;;5041712;28;20415;-90
2022/03/28 08:46:28;;;;;;;4.03;3.60;;;20.20;43.50;;;;;;5053829;28;20472;-91
2022/03/28 08:48:56;;;;;;;4.03;3.63;;;21.10;42.50;;;;;;5051992;28;20453;-90
2022/03/28 08:51:22;;;;;;;3.77;3.40;;;21.80;41.60;;;;;;5071859;28;20442;-90
2022/03/28 08:53:47;;;;;;;5.47;4.20;;;22.30;42.30;;;;;;5068763;28;20449;-90
2022/03/28 08:56:13;;;;;;;5.00;4.30;;;22.70;43.00;;;;;;5048677;28;20499;-90
2022/03/28 08:58:39;;;;;;;6.63;3.77;;;23.10;42.30;;;;;;5063155;28;20224;-90
2022/03/28 09:01:10;;;;;;;5.53;4.10;;;23.50;42.40;;;;;;5047047;28;20231;-91
2022/03/28 09:03:41;;;;;;;4.40;4.00;;;23.70;43.40;;;;;;5053496;28;20446;-89
2022/03/28 09:06:39;;;;;;;6.47;3.83;;;23.90;42.80;;;;;;5040335;28;20418;-89
2022/03/28 09:09:24;;;;;;;6.93;4.20;;;24.10;43.20;;;;;;5046365;28;20553;-91
2022/03/28 09:11:54;;;;;;;4.00;3.10;;;24.10;42.20;;;;;;5046255;28;20666;-89
2022/03/28 09:14:40;;;;;;;5.53;4.20;;;23.90;42.60;;;;;;5060500;28;20516;-91
2022/03/28 09:17:10;;;;;;;4.60;3.37;;;23.80;42.80;;;;;;5045427;28;20538;-89
2022/03/28 09:19:48;;;;;;;7.93;4.40;;;23.50;43.20;;;;;;5038126;28;20520;-91
2022/03/28 09:22:20;;;;;;;6.20;4.63;;;23.30;42.80;;;;;;5044116;28;20642;-92
2022/03/28 09:24:47;;;;;;;5.20;4.23;;;23.10;42.60;;;;;;5040013;28;20415;-89
2022/03/28 09:27:24;;;;;;;4.70;3.77;;;23.10;43.00;;;;;;5035015;28;20477;-89
2022/03/28 09:30:10;;;;;;;5.50;4.17;;;23.10;42.70;;;;;;5053190;28;20632;-90
2022/03/28 09:32:39;;;;;;;5.20;3.70;;;23.00;42.90;;;;;;5047559;28;20458;-89
2022/03/28 09:35:20;;;;;;;5.90;4.77;;;23.00;43.10;;;;;;5070830;28;20410;-89
2022/03/28 09:37:53;;;;;;;6.27;4.80;;;23.00;43.40;;;;;;5042381;28;20458;-91
2022/03/28 09:40:39;;;;;;;5.67;4.00;;;22.90;43.70;;;;;;5053573;28;20430;-90
2022/03/28 09:43:17;;;;;;;6.77;4.97;;;23.00;44.20;;;;;;5047154;28;20464;-92
2022/03/28 09:45:50;;;;;;;8.10;6.53;;;23.30;44.60;;;;;;5046944;28;20410;-92
2022/03/28 09:48:19;;;;;;;5.50;4.50;;;23.70;44.70;;;;;;5071776;28;20492;-90
2022/03/28 09:50:48;;;;;;;5.53;4.43;;;24.10;43.90;;;;;;5051148;28;20418;-90
2022/03/28 09:53:16;;;;;;;5.70;4.97;;;24.20;44.00;;;;;;5057333;28;20466;-92
2022/03/28 09:55:50;;;;;;;7.83;4.53;;;24.40;44.20;;;;;;5073475;28;20520;-90
2022/03/28 09:58:35;;;;;;;5.60;4.43;;;24.20;45.00;;;;;;5046791;28;20498;-90
2022/03/28 10:01:05;;;;;;;5.90;5.00;;;24.00;44.60;;;;;;5065051;28;20453;-90
2022/03/28 10:03:35;;;;;;;7.13;4.50;;;23.90;44.80;;;;;;5049360;28;20463;-92
2022/03/28 10:06:02;;;;;;;5.90;4.23;;;23.90;45.10;;;;;;5055863;28;20525;-90
2022/03/28 10:08:28;;;;;;;6.07;4.13;;;23.80;45.40;;;;;;5058015;28;20872;-91
2022/03/28 10:10:55;;;;;;;7.23;5.40;;;23.50;45.50;;;;;;5067147;28;20498;-90
2022/03/28 10:13:22;;;;;;;8.03;4.97;;;23.30;45.90;;;;;;5063213;28;20498;-92
2022/03/28 10:15:49;;;;;;;5.53;4.20;;;23.20;47.10;;;;;;5072235;28;20422;-91
2022/03/28 10:18:15;;;;;;;4.80;4.40;;;23.00;47.40;;;;;;5069647;28;20454;-92
2022/03/28 10:20:46;;;;;;;6.50;4.30;;;22.60;48.20;;;;;;5053269;28;20836;-90
2022/03/28 10:23:16;;;;;;;6.90;5.50;;;22.20;49.00;;;;;;5044703;28;20201;-92
2022/03/28 10:25:45;;;;;;;6.37;4.30;;;22.20;49.10;;;;;;5048467;28;20866;-89
2022/03/28 10:28:11;;;;;;;4.80;4.27;;;22.10;48.80;;;;;;5067427;28;20578;-90
2022/03/28 10:30:37;;;;;;;6.60;4.47;;;22.00;49.30;;;;;;5059437;28;20469;-91
2022/03/28 10:33:12;;;;;;;5.47;4.43;;;21.80;48.20;;;;;;5044217;28;20439;-92
2022/03/28 10:35:39;;;;;;;6.50;5.03;;;21.80;48.60;;;;;;5041692;28;20492;-90
2022/03/28 10:38:16;;;;;;;7.97;5.53;;;21.70;48.10;;;;;;5040412;28;20874;-90
2022/03/28 10:41:02;;;;;;;7.37;5.77;;;21.50;48.60;;;;;;5062801;28;20209;-89
2022/03/28 10:43:31;;;;;;;7.30;6.23;;;21.50;49.00;;;;;;5064396;28;20819;-90
2022/03/28 10:46:02;;;;;;;7.30;5.23;;;21.40;49.20;;;;;;5065659;28;20471;-93
2022/03/28 10:48:40;;;;;;;6.37;4.70;;;21.20;50.20;;;;;;5073028;28;20496;-92
2022/03/28 10:51:21;;;;;;;8.23;4.57;;;21.20;50.10;;;;;;5052413;28;20454;-92
2022/03/28 10:53:59;;;;;;;6.70;4.20;;;21.20;49.50;;;;;;5046219;28;20869;-90
2022/03/28 10:56:45;;;;;;;7.80;5.40;;;21.20;49.80;;;;;;5051440;28;20525;-92
2022/03/28 10:59:19;;;;;;;7.23;6.33;;;21.20;51.00;;;;;;5063309;28;20447;-92
2022/03/28 11:01:49;;;;;;;7.10;5.63;;;21.10;51.50;;;;;;5036374;28;20426;-92
2022/03/28 11:04:23;;;;;;;8.37;5.03;;;21.10;51.40;;;;;;5066421;28;20439;-90
2022/03/28 11:06:49;;;;;;;7.30;6.07;;;21.10;51.90;;;;;;5052632;28;20480;-91
2022/03/28 11:09:40;;;;;;;5.93;5.33;;;21.10;51.60;;;;;;5041979;28;20423;-91
2022/03/28 11:12:16;;;;;;;7.70;6.57;;;21.10;51.00;;;;;;5045705;28;20216;-89
2022/03/28 11:15:00;;;;;;;7.70;6.07;;;21.10;51.40;;;;;;5050111;28;20448;-90
2022/03/28 11:17:30;;;;;;;6.60;5.40;;;21.10;51.40;;;;;;5061821;28;20483;-90
2022/03/28 11:20:14;;;;;;;7.00;5.90;;;21.10;51.10;;;;;;5059560;28;20429;-91
2022/03/28 11:22:40;;;;;;;9.30;6.30;;;21.00;51.10;;;;;;5044292;28;20473;-91
2022/03/28 11:25:36;;;;;;;8.40;6.00;;;21.00;51.20;;;;;;5047051;28;20504;-90
2022/03/28 11:28:10;;;;;;;9.50;5.90;;;21.00;51.40;;;;;;5048434;28;20474;-90
2022/03/28 11:30:55;;;;;;;6.80;6.03;;;21.10;51.30;;;;;;5045385;28;20902;-92
2022/03/28 11:33:41;;;;;;;7.73;5.10;;;21.20;51.60;;;;;;5045171;28;20465;-92
2022/03/28 11:36:22;;;;;;;7.23;6.10;;;21.30;51.00;;;;;;5044980;28;20437;-92
2022/03/28 11:38:50;;;;;;;7.10;5.07;;;21.40;51.10;;;;;;5055792;28;20461;-90
2022/03/28 11:41:19;;;;;;;5.90;5.23;;;21.50;51.00;;;;;;5079971;28;20442;-92
2022/03/28 11:43:49;;;;;;;7.07;4.90;;;21.70;51.20;;;;;;5064224;28;20453;-90
2022/03/28 11:46:21;;;;;;;6.20;5.00;;;21.80;50.90;;;;;;5053814;28;20437;-92
2022/03/28 11:48:58;;;;;;;7.53;5.20;;;22.00;50.70;;;;;;5065220;28;20456;-90
2022/03/28 11:51:30;;;;;;;7.40;5.20;;;22.00;50.70;;;;;;5044036;28;20549;-92
2022/03/28 11:54:01;;;;;;;7.20;5.10;;;22.10;50.40;;;;;;5065666;28;20453;-92
2022/03/28 11:58:14;;;;;;;7.43;5.33;;;22.00;50.40;;;;;;5054363;28;20429;-91
2022/03/28 11:59:20;;;;;;;9.03;5.30;;;21.90;50.80;;;;;;5062991;28;20443;-91
2022/03/28 12:02:00;;;;;;;5.60;5.10;;;21.70;50.80;;;;;;5064267;28;20438;-89
2022/03/28 12:04:26;;;;;;;8.23;6.50;;;21.60;50.60;;;;;;5066946;28;20189;-90
2022/03/28 12:06:52;;;;;;;6.90;6.20;;;21.50;50.70;;;;;;5065645;28;20549;-91
2022/03/28 12:09:23;;;;;;;5.90;5.30;;;21.50;51.10;;;;;;5054128;28;20454;-91
2022/03/28 12:11:52;;;;;;;6.00;5.00;;;21.60;51.00;;;;;;5082047;28;20403;-92
2022/03/28 12:14:19;;;;;;;5.93;4.43;;;21.70;51.10;;;;;;5064507;28;20433;-92
2022/03/28 12:16:51;;;;;;;7.70;6.13;;;21.80;51.00;;;;;;5050831;28;20848;-92
2022/03/28 12:19:22;;;;;;;6.17;5.50;;;21.90;50.90;;;;;;5047141;28;20438;-90
2022/03/28 12:21:52;;;;;;;6.23;5.23;;;22.00;50.60;;;;;;5064207;28;20448;-90
2022/03/28 12:24:20;;;;;;;6.20;5.30;;;22.10;50.50;;;;;;5046037;28;20442;-92
2022/03/28 12:26:48;;;;;;;5.30;4.80;;;22.10;50.80;;;;;;5042498;28;20462;-91
2022/03/28 12:29:15;;;;;;;7.90;5.83;;;22.10;50.90;;;;;;5047751;28;20485;-92
2022/03/28 12:31:42;;;;;;;6.00;4.93;;;22.00;50.30;;;;;;5053001;28;20413;-86
2022/03/28 12:34:09;;;;;;;5.87;5.27;;;21.90;50.40;;;;;;5052662;28;20796;-89
2022/03/28 12:36:36;;;;;;;6.33;5.70;;;21.80;51.00;;;;;;5058207;28;20503;-88
2022/03/28 12:39:06;;;;;;;8.40;5.57;;;21.80;51.00;;;;;;5040684;28;20425;-88
2022/03/28 12:41:46;;;;;;;7.60;5.10;;;21.80;50.80;;;;;;5045277;28;20508;-87
2022/03/28 12:44:26;;;;;;;12.30;8.30;;;21.70;50.70;;;;;;5047059;28;20426;-87
2022/03/28 12:47:06;;;;;;;6.27;5.53;;;21.60;51.60;;;;;;5047279;28;20474;-87
2022/03/28 12:49:43;;;;;;;9.37;6.37;;;21.60;51.20;;;;;;5045614;28;20561;-88